Time;durP1;ratioP1;P1;durP2;ratioP2;P2;SDS_P1;SDS_P2;PMS_P1;PMS_P2;Temp;Humidity;BMP_temperature;BMP_pressure;BME280_temperature;BME280_humidity;BME280_pressure;Samples;Min_cycle;Max_cycle;Signal;HPM_P1;HPM_P2
2022/01/13 00:00:48;;;;;;;13.25;5.82;;;22.10;54.00;;;;;;4948065;29;20027;-76
2022/01/13 00:03:14;;;;;;;17.15;6.15;;;22.10;54.40;;;;;;4947903;29;20498;-75
2022/01/13 00:05:40;;;;;;;13.57;5.90;;;22.10;54.40;;;;;;4947669;28;20057;-76
2022/01/13 00:08:06;;;;;;;12.75;6.07;;;22.00;54.30;;;;;;4934545;29;20020;-75
2022/01/13 00:10:32;;;;;;;12.00;6.28;;;22.10;53.90;;;;;;4930477;29;20062;-75
2022/01/13 00:13:03;;;;;;;11.98;5.97;;;22.10;54.20;;;;;;4929357;29;20036;-75
2022/01/13 00:15:48;;;;;;;15.02;6.07;;;22.10;54.20;;;;;;4931083;29;20031;-77
2022/01/13 00:18:29;;;;;;;10.82;6.03;;;22.10;54.20;;;;;;4943125;29;20392;-75
2022/01/13 00:26:25;;;;;;;10.90;5.80;;;22.00;53.30;;;;;;4909086;29;20163;-76
2022/01/13 00:28:53;;;;;;;13.13;6.20;;;22.00;53.70;;;;;;4930243;29;20421;-75
2022/01/13 00:31:25;;;;;;;11.80;5.75;;;22.00;54.30;;;;;;4931788;29;20032;-76
2022/01/13 00:33:54;;;;;;;11.43;5.70;;;22.00;54.20;;;;;;4931996;29;20157;-75
2022/01/13 00:36:22;;;;;;;11.00;5.85;;;22.00;54.40;;;;;;4935395;29;20035;-76
2022/01/13 00:38:48;;;;;;;11.57;6.20;;;22.00;54.10;;;;;;4932086;28;20357;-75
2022/01/13 00:41:14;;;;;;;11.35;5.43;;;22.10;54.20;;;;;;4950889;28;20031;-74
2022/01/13 00:43:41;;;;;;;13.10;5.80;;;22.00;54.30;;;;;;4950495;28;20498;-75
2022/01/13 00:46:09;;;;;;;11.20;5.70;;;22.10;55.00;;;;;;4950710;28;20051;-76
2022/01/13 00:48:36;;;;;;;13.70;5.65;;;22.00;54.20;;;;;;4947324;28;20046;-75
2022/01/13 00:51:02;;;;;;;19.63;6.82;;;22.00;54.10;;;;;;4948774;29;20035;-75
2022/01/13 00:53:27;;;;;;;14.57;6.95;;;22.00;54.10;;;;;;4950619;29;20097;-76
2022/01/13 00:55:59;;;;;;;18.92;7.55;;;22.00;53.90;;;;;;4950561;28;20495;-76
2022/01/13 00:58:30;;;;;;;20.73;7.35;;;22.00;54.10;;;;;;4935004;29;20488;-75
2022/01/13 01:00:57;;;;;;;15.80;6.90;;;22.00;53.70;;;;;;4953966;29;20137;-76
2022/01/13 01:03:24;;;;;;;12.43;6.43;;;22.00;53.60;;;;;;4952573;29;20445;-75
2022/01/13 01:05:50;;;;;;;11.68;6.00;;;22.00;53.30;;;;;;4952482;28;20031;-76
2022/01/13 01:08:16;;;;;;;12.10;6.47;;;22.00;53.50;;;;;;4953925;28;20034;-75
2022/01/13 01:10:45;;;;;;;14.70;6.35;;;22.00;53.80;;;;;;4953427;29;20043;-75
2022/01/13 01:13:17;;;;;;;15.88;6.40;;;21.90;53.90;;;;;;4954093;28;20102;-75
2022/01/13 01:15:49;;;;;;;12.65;6.05;;;21.90;54.00;;;;;;4953572;28;20100;-75
2022/01/13 01:26:27;;;;;;;13.25;5.93;;;22.00;54.50;;;;;;4953532;28;20036;-75
2022/01/13 01:29:09;;;;;;;11.40;5.35;;;22.00;54.50;;;;;;4951877;29;20047;-73
2022/01/13 01:31:38;;;;;;;13.93;6.25;;;22.00;54.80;;;;;;4953373;29;20023;-73
2022/01/13 01:36:41;;;;;;;25.33;6.10;;;22.00;54.40;;;;;;4934206;29;20114;-73
2022/01/13 01:39:08;;;;;;;14.68;5.57;;;21.90;54.30;;;;;;4933029;29;20401;-73
2022/01/13 01:41:39;;;;;;;26.25;6.72;;;21.90;54.30;;;;;;4934436;29;20087;-73
2022/01/13 01:44:10;;;;;;;12.80;5.85;;;21.90;54.00;;;;;;4934478;29;20036;-73
2022/01/13 01:46:38;;;;;;;13.88;5.38;;;21.90;54.30;;;;;;4952536;23;20133;-71
2022/01/13 01:49:16;;;;;;;11.82;5.53;;;21.90;55.10;;;;;;4960493;28;20385;-71
2022/01/13 01:51:50;;;;;;;14.57;5.78;;;21.90;54.60;;;;;;4973063;28;20031;-71
2022/01/13 01:54:16;;;;;;;11.73;5.53;;;21.90;54.70;;;;;;4955358;29;20065;-71
2022/01/13 01:56:43;;;;;;;14.35;6.50;;;21.90;54.60;;;;;;4946733;28;20051;-71
2022/01/13 01:59:13;;;;;;;15.50;5.72;;;21.80;54.50;;;;;;4934189;29;20401;-71
2022/01/13 02:01:39;;;;;;;8.95;5.47;;;21.80;54.60;;;;;;4936241;29;20111;-71
2022/01/13 02:04:05;;;;;;;13.48;6.15;;;21.80;54.50;;;;;;4936317;29;20035;-73
2022/01/13 02:06:30;;;;;;;9.13;5.20;;;21.80;54.60;;;;;;4955044;28;20031;-73
2022/01/13 02:08:56;;;;;;;12.38;5.30;;;21.80;54.60;;;;;;4953638;28;20034;-71
2022/01/13 02:11:29;;;;;;;10.23;5.40;;;21.80;54.50;;;;;;4954770;29;20028;-70
2022/01/13 02:13:59;;;;;;;11.85;5.90;;;21.80;54.60;;;;;;4955223;28;20038;-71
2022/01/13 02:19:00;;;;;;;12.48;5.45;;;21.80;54.00;;;;;;4954470;29;20065;-71
2022/01/13 02:21:27;;;;;;;10.38;5.50;;;21.80;54.40;;;;;;4953107;29;20548;-71
2022/01/13 02:23:55;;;;;;;13.38;5.28;;;21.80;54.40;;;;;;4953610;29;20110;-70
2022/01/13 02:26:21;;;;;;;9.82;5.43;;;21.70;54.20;;;;;;4954476;28;20031;-70
2022/01/13 02:28:48;;;;;;;11.50;5.22;;;21.70;54.30;;;;;;4954147;28;20082;-71
2022/01/13 02:31:14;;;;;;;11.05;5.28;;;21.70;54.40;;;;;;4954822;29;20023;-71
2022/01/13 02:33:41;;;;;;;11.45;5.50;;;21.70;54.30;;;;;;4954572;29;20531;-72
2022/01/13 02:36:07;;;;;;;10.25;5.20;;;21.80;54.50;;;;;;4954323;28;20035;-72
2022/01/13 02:38:34;;;;;;;10.02;5.50;;;21.70;54.20;;;;;;4954389;28;20118;-72
2022/01/13 02:41:01;;;;;;;11.05;5.30;;;21.70;54.60;;;;;;4954168;29;20035;-72
2022/01/13 02:43:30;;;;;;;8.73;4.78;;;21.70;54.40;;;;;;4954297;29;20476;-72
2022/01/13 02:46:18;;;;;;;10.85;5.72;;;21.70;54.20;;;;;;4954161;28;20039;-72
2022/01/13 02:48:44;;;;;;;13.38;4.93;;;21.70;54.10;;;;;;4954091;29;20038;-71
2022/01/13 02:51:10;;;;;;;11.43;4.72;;;21.70;54.10;;;;;;4954133;29;20035;-71
2022/01/13 02:53:36;;;;;;;9.05;5.32;;;21.70;54.30;;;;;;4954157;29;20023;-71
2022/01/13 02:56:04;;;;;;;8.90;4.68;;;21.70;54.40;;;;;;4953837;28;20038;-71
2022/01/13 02:58:34;;;;;;;9.60;4.90;;;21.70;54.20;;;;;;4953796;29;20403;-72
2022/01/13 03:01:01;;;;;;;12.70;5.32;;;21.70;54.80;;;;;;4953735;29;20027;-72
2022/01/13 03:03:29;;;;;;;10.27;5.13;;;21.70;54.60;;;;;;4953859;28;20028;-72
2022/01/13 03:05:54;;;;;;;12.82;5.07;;;21.70;55.10;;;;;;4953998;28;20035;-70
2022/01/13 03:08:20;;;;;;;9.15;4.70;;;21.70;54.80;;;;;;4952654;29;20058;-71
2022/01/13 03:10:46;;;;;;;9.65;4.25;;;21.70;55.10;;;;;;4953719;29;20500;-72
2022/01/13 03:13:12;;;;;;;10.88;4.97;;;21.70;55.00;;;;;;4952210;29;20499;-72
2022/01/13 03:15:38;;;;;;;10.75;4.97;;;21.70;54.70;;;;;;4953744;29;20031;-71
2022/01/13 03:18:04;;;;;;;19.17;5.10;;;21.70;54.70;;;;;;4953733;28;20047;-72
2022/01/13 03:20:30;;;;;;;9.30;4.60;;;21.70;54.40;;;;;;4953252;28;20039;-72
2022/01/13 03:22:56;;;;;;;10.80;4.90;;;21.60;54.70;;;;;;4953837;29;20030;-72
2022/01/13 03:25:23;;;;;;;12.38;4.57;;;21.70;54.50;;;;;;4953917;29;20118;-71
2022/01/13 03:27:56;;;;;;;8.88;4.75;;;21.60;54.60;;;;;;4953855;28;20030;-72
2022/01/13 03:30:22;;;;;;;8.32;4.40;;;21.70;54.60;;;;;;4952077;29;20032;-71
2022/01/13 03:32:49;;;;;;;8.68;4.47;;;21.60;54.60;;;;;;4953689;29;20034;-72
2022/01/13 03:35:15;;;;;;;10.15;4.72;;;21.60;54.60;;;;;;4953655;28;20502;-72
2022/01/13 03:37:42;;;;;;;9.73;5.03;;;21.60;54.70;;;;;;4953540;28;20031;-72
2022/01/13 03:40:08;;;;;;;8.48;4.90;;;21.60;54.70;;;;;;4953141;29;20472;-72
2022/01/13 03:42:34;;;;;;;9.82;4.60;;;21.60;55.10;;;;;;4953497;29;20035;-72
2022/01/13 03:45:00;;;;;;;9.68;5.05;;;21.60;54.80;;;;;;4951831;29;20041;-72
2022/01/13 03:47:26;;;;;;;15.60;4.85;;;21.60;55.10;;;;;;4952087;28;20023;-71
2022/01/13 03:49:54;;;;;;;10.20;4.60;;;21.60;54.80;;;;;;4953237;29;20034;-71
2022/01/13 03:52:22;;;;;;;12.63;4.90;;;21.60;54.90;;;;;;4953379;29;20300;-72
2022/01/13 03:55:13;;;;;;;9.60;4.72;;;21.60;54.70;;;;;;4953298;29;20058;-71
2022/01/13 03:58:16;;;;;;;10.52;5.15;;;21.60;54.90;;;;;;4953144;28;20023;-71
2022/01/13 04:01:20;;;;;;;11.77;4.22;;;21.60;55.00;;;;;;4953002;29;20571;-72
2022/01/13 04:03:46;;;;;;;9.95;4.68;;;21.60;54.90;;;;;;4934185;29;20024;-72
2022/01/13 04:06:12;;;;;;;10.20;4.75;;;21.60;55.00;;;;;;4934053;29;20628;-71
2022/01/13 04:08:39;;;;;;;13.05;4.55;;;21.60;54.70;;;;;;4933924;29;20035;-72
2022/01/13 04:11:04;;;;;;;8.82;4.68;;;21.60;54.90;;;;;;4933957;29;20062;-71
2022/01/13 04:16:33;;;;;;;11.70;4.55;;;21.60;55.10;;;;;;4932741;29;20035;-72
2022/01/13 04:19:04;;;;;;;9.40;4.45;;;21.60;55.20;;;;;;4940917;29;20043;-72
2022/01/13 04:21:36;;;;;;;10.60;4.43;;;21.60;55.10;;;;;;4953236;28;20024;-72
2022/01/13 04:24:04;;;;;;;9.13;4.50;;;21.50;55.30;;;;;;4952497;29;20031;-72
2022/01/13 04:26:31;;;;;;;11.88;5.03;;;21.50;55.30;;;;;;4952965;28;20031;-72
2022/01/13 04:29:36;;;;;;;7.60;4.13;;;21.60;55.30;;;;;;4952580;28;20027;-72
2022/01/13 04:31:51;;;;;;;9.75;4.28;;;21.50;55.40;;;;;;4949256;28;20484;-72
2022/01/13 04:34:18;;;;;;;7.72;3.88;;;21.60;55.50;;;;;;4956269;29;20042;-72
2022/01/13 04:36:45;;;;;;;9.13;4.57;;;21.50;55.50;;;;;;4956435;28;20066;-72
2022/01/13 04:39:12;;;;;;;8.75;4.43;;;21.50;55.30;;;;;;4956485;29;20512;-72
2022/01/13 04:41:40;;;;;;;9.25;4.45;;;21.50;55.40;;;;;;4955666;29;20171;-72
2022/01/13 04:44:08;;;;;;;6.47;3.83;;;21.50;55.60;;;;;;4956470;28;20031;-71
2022/01/13 04:46:34;;;;;;;8.85;4.55;;;21.50;55.30;;;;;;4956160;28;20035;-72
2022/01/13 04:49:00;;;;;;;9.95;4.28;;;21.50;55.50;;;;;;4956228;28;20027;-71
2022/01/13 04:51:29;;;;;;;9.02;3.90;;;21.50;55.60;;;;;;4955869;29;20472;-71
2022/01/13 04:53:54;;;;;;;7.93;4.03;;;21.50;55.40;;;;;;4956244;29;20059;-72
2022/01/13 04:56:41;;;;;;;8.15;4.35;;;21.50;55.30;;;;;;4956193;29;20098;-71
2022/01/13 04:59:08;;;;;;;7.43;4.13;;;21.50;55.30;;;;;;4956045;29;20034;-71
2022/01/13 05:01:34;;;;;;;8.20;4.15;;;21.50;55.40;;;;;;4956286;29;20063;-71
2022/01/13 05:04:00;;;;;;;8.35;4.28;;;21.50;55.50;;;;;;4956306;29;20032;-72
2022/01/13 05:06:26;;;;;;;9.18;4.55;;;21.50;55.50;;;;;;4956063;29;20186;-72
2022/01/13 05:08:52;;;;;;;8.52;4.18;;;21.50;55.60;;;;;;4955726;29;20043;-72
2022/01/13 05:11:19;;;;;;;7.75;4.00;;;21.50;55.50;;;;;;4956315;29;20027;-72
2022/01/13 05:13:45;;;;;;;9.55;4.20;;;21.50;55.30;;;;;;4956197;29;20023;-72
2022/01/13 05:16:20;;;;;;;7.80;4.10;;;21.50;55.60;;;;;;4955936;28;20035;-71
2022/01/13 05:21:22;;;;;;;11.05;3.92;;;21.50;55.80;;;;;;4956096;29;20090;-73
2022/01/13 05:23:49;;;;;;;8.00;4.00;;;21.50;55.40;;;;;;4955941;29;20042;-73
2022/01/13 05:26:15;;;;;;;7.45;4.28;;;21.50;55.50;;;;;;4955407;28;20110;-72
2022/01/13 05:28:41;;;;;;;7.60;4.30;;;21.50;55.60;;;;;;4955647;28;20152;-72
2022/01/13 05:31:07;;;;;;;8.60;4.13;;;21.50;55.40;;;;;;4955449;29;20019;-73
2022/01/13 05:33:33;;;;;;;8.25;4.22;;;21.50;55.40;;;;;;4955416;29;20059;-70
2022/01/13 05:36:00;;;;;;;9.48;4.32;;;21.50;55.20;;;;;;4955693;28;20020;-72
2022/01/13 05:38:26;;;;;;;8.25;4.28;;;21.50;55.50;;;;;;4955526;29;20066;-71
2022/01/13 05:40:53;;;;;;;7.35;3.70;;;21.50;55.90;;;;;;4955293;29;20031;-71
2022/01/13 05:43:19;;;;;;;7.82;3.85;;;21.50;55.50;;;;;;4955473;28;20050;-72
2022/01/13 05:45:45;;;;;;;9.18;3.95;;;21.50;55.60;;;;;;4954151;29;20085;-72
2022/01/13 05:48:11;;;;;;;7.50;4.07;;;21.50;55.40;;;;;;4954110;28;20444;-72
2022/01/13 05:50:37;;;;;;;7.45;4.00;;;21.50;55.70;;;;;;4955261;28;20404;-72
2022/01/13 05:53:04;;;;;;;7.32;4.00;;;21.50;55.40;;;;;;4955715;29;20023;-71
2022/01/13 05:55:30;;;;;;;8.15;4.03;;;21.50;55.80;;;;;;4955237;29;20604;-71
2022/01/13 05:57:55;;;;;;;13.13;4.43;;;21.50;55.40;;;;;;4955286;28;20139;-71
2022/01/13 06:00:22;;;;;;;6.93;3.97;;;21.40;55.40;;;;;;4953091;28;20101;-71
2022/01/13 06:02:48;;;;;;;10.85;4.18;;;21.50;55.30;;;;;;4954879;29;20082;-72
2022/01/13 06:05:15;;;;;;;11.50;4.22;;;21.50;55.30;;;;;;4955039;29;20496;-72
2022/01/13 06:07:41;;;;;;;6.78;3.88;;;21.50;55.80;;;;;;4954975;28;20415;-71
2022/01/13 06:10:10;;;;;;;8.65;4.03;;;21.40;55.30;;;;;;4954857;29;20034;-71
2022/01/13 06:12:39;;;;;;;11.43;3.83;;;21.50;55.50;;;;;;4954923;29;20499;-71
2022/01/13 06:15:12;;;;;;;9.83;3.47;;;21.50;55.60;;;;;;4954533;29;20023;-71
2022/01/13 06:17:40;;;;;;;7.07;3.65;;;21.50;55.40;;;;;;4955026;28;20030;-72
2022/01/13 06:20:09;;;;;;;6.97;3.72;;;21.50;55.60;;;;;;4954613;29;20031;-71
2022/01/13 06:22:35;;;;;;;7.57;3.83;;;21.50;55.20;;;;;;4954734;29;20035;-71
2022/01/13 06:25:03;;;;;;;9.73;3.97;;;21.50;55.40;;;;;;4954484;29;20361;-71
2022/01/13 06:27:29;;;;;;;6.80;3.70;;;21.50;55.30;;;;;;4954430;28;20035;-71
2022/01/13 06:29:54;;;;;;;8.10;3.30;;;21.50;55.30;;;;;;4954537;29;20029;-71
2022/01/13 06:32:21;;;;;;;10.60;4.10;;;21.40;55.40;;;;;;4954080;29;20336;-71
2022/01/13 06:34:47;;;;;;;7.28;3.60;;;21.50;55.40;;;;;;4953443;29;20176;-71
2022/01/13 06:37:13;;;;;;;7.57;4.28;;;21.50;55.50;;;;;;4953398;28;20167;-71
2022/01/13 06:39:39;;;;;;;7.28;4.18;;;21.40;55.10;;;;;;4953912;29;20113;-71
2022/01/13 06:42:05;;;;;;;7.05;3.80;;;21.40;55.40;;;;;;4954211;29;20035;-71
2022/01/13 06:44:31;;;;;;;7.45;3.90;;;21.50;55.30;;;;;;4953967;29;20031;-72
2022/01/13 06:46:57;;;;;;;9.25;3.97;;;21.40;55.10;;;;;;4954201;28;20046;-72
2022/01/13 06:49:23;;;;;;;7.25;3.75;;;21.40;55.40;;;;;;4953765;29;20046;-72
2022/01/13 06:51:49;;;;;;;9.43;3.70;;;21.50;55.50;;;;;;4953851;28;20118;-72
2022/01/13 06:54:15;;;;;;;8.13;3.50;;;21.40;55.40;;;;;;4954174;29;20023;-71
2022/01/13 06:56:40;;;;;;;6.25;3.60;;;21.40;55.20;;;;;;4952875;28;20046;-72
2022/01/13 06:59:10;;;;;;;7.55;4.28;;;21.40;55.30;;;;;;4953738;29;20038;-72
2022/01/13 07:01:40;;;;;;;7.88;3.47;;;21.50;55.30;;;;;;4954052;29;20035;-71
2022/01/13 07:04:09;;;;;;;;;;;21.40;55.50;;;;;;4954457;29;20027;-73
2022/01/13 07:06:35;;;;;;;7.55;3.53;;;21.40;55.30;;;;;;4953487;28;19918;-73
2022/01/13 07:09:03;;;;;;;8.00;3.60;;;21.40;55.30;;;;;;4952685;29;20023;-72
2022/01/13 07:11:28;;;;;;;8.20;4.00;;;21.40;55.30;;;;;;4953813;29;20045;-72
2022/01/13 07:13:54;;;;;;;7.38;3.83;;;21.40;55.20;;;;;;4952671;29;20454;-72
2022/01/13 07:16:21;;;;;;;9.05;3.75;;;21.40;55.60;;;;;;4953635;28;20081;-73
2022/01/13 07:18:47;;;;;;;5.68;3.67;;;21.40;55.40;;;;;;4953654;29;20031;-72
2022/01/13 07:21:15;;;;;;;6.93;3.67;;;21.40;55.70;;;;;;4952402;29;20031;-72
2022/01/13 07:23:41;;;;;;;7.72;3.92;;;21.40;55.40;;;;;;4953281;29;20031;-72
2022/01/13 07:26:07;;;;;;;8.20;4.25;;;21.40;55.30;;;;;;4953331;28;20534;-72
2022/01/13 07:28:32;;;;;;;7.30;3.80;;;21.40;55.50;;;;;;4953647;29;20031;-72
2022/01/13 07:30:58;;;;;;;10.82;3.90;;;21.40;55.30;;;;;;4953684;29;20151;-72
2022/01/13 07:33:24;;;;;;;8.23;4.38;;;21.40;55.30;;;;;;4952148;29;20027;-72
2022/01/13 07:35:50;;;;;;;6.85;3.63;;;21.40;55.30;;;;;;4953460;28;20030;-72
2022/01/13 07:38:17;;;;;;;7.13;3.72;;;21.40;55.70;;;;;;4953301;29;20122;-72
2022/01/13 07:40:43;;;;;;;8.38;4.10;;;21.40;55.30;;;;;;4935981;29;20027;-73
2022/01/13 07:43:09;;;;;;;7.28;3.55;;;21.40;55.40;;;;;;4953481;29;20023;-72
2022/01/13 07:45:35;;;;;;;7.00;4.05;;;21.40;55.40;;;;;;4953466;29;20023;-72
2022/01/13 07:48:01;;;;;;;8.23;4.20;;;21.40;55.20;;;;;;4993698;23;20129;-72
2022/01/13 07:50:26;;;;;;;8.75;3.92;;;21.40;55.30;;;;;;4987448;28;20052;-72
2022/01/13 07:52:52;;;;;;;8.82;3.88;;;21.40;55.40;;;;;;5008570;28;20034;-72
2022/01/13 07:55:18;;;;;;;5.85;3.47;;;21.40;55.20;;;;;;5009683;28;20036;-72
2022/01/13 07:57:44;;;;;;;7.80;3.95;;;21.40;55.30;;;;;;4974150;28;20035;-73
2022/01/13 08:00:12;;;;;;;7.07;3.88;;;21.40;55.10;;;;;;4968712;28;20062;-73
2022/01/13 08:02:39;;;;;;;8.55;3.63;;;21.40;55.30;;;;;;4953356;28;20066;-72
2022/01/13 08:05:07;;;;;;;5.63;3.40;;;21.40;55.40;;;;;;4969031;28;20039;-72
2022/01/13 08:07:33;;;;;;;6.32;3.70;;;21.40;55.10;;;;;;4969944;28;20113;-72
2022/01/13 08:09:58;;;;;;;7.57;3.88;;;21.40;55.00;;;;;;4957074;28;20542;-72
2022/01/13 08:12:24;;;;;;;7.32;4.07;;;21.40;55.10;;;;;;4957535;28;20045;-72
2022/01/13 08:14:51;;;;;;;6.68;3.50;;;21.40;55.30;;;;;;4992218;28;20050;-72
2022/01/13 08:20:01;;;;;;;6.53;3.45;;;21.40;55.50;;;;;;4992596;28;20374;-72
2022/01/13 08:22:27;;;;;;;9.48;3.63;;;21.40;55.30;;;;;;4993643;28;20026;-72
2022/01/13 08:24:52;;;;;;;6.22;3.63;;;21.40;55.30;;;;;;4992343;28;20034;-72
2022/01/13 08:27:18;;;;;;;7.88;3.47;;;21.40;55.20;;;;;;4991974;28;20080;-73
2022/01/13 08:29:43;;;;;;;6.18;3.53;;;21.40;55.30;;;;;;4990347;28;20030;-72
2022/01/13 08:32:09;;;;;;;9.18;3.92;;;21.40;55.20;;;;;;4993438;28;20121;-72
2022/01/13 08:34:35;;;;;;;8.15;4.32;;;21.40;55.00;;;;;;4992281;28;20030;-72
2022/01/13 08:37:01;;;;;;;8.90;3.65;;;21.40;55.50;;;;;;4992184;28;20038;-72
2022/01/13 08:39:27;;;;;;;9.85;3.63;;;21.40;55.70;;;;;;4991780;28;20118;-72
2022/01/13 08:41:52;;;;;;;8.13;4.10;;;21.40;55.80;;;;;;4976009;28;20547;-73
2022/01/13 08:44:18;;;;;;;20.13;4.55;;;21.50;56.10;;;;;;4992495;28;20109;-73
2022/01/13 08:46:44;;;;;;;27.25;16.98;;;21.40;56.40;;;;;;4974271;28;20041;-83
2022/01/13 08:49:09;;;;;;;60.17;20.60;;;19.40;44.30;;;;;;4991975;28;20498;-83
2022/01/13 08:51:39;;;;;;;29.67;19.02;;;17.60;46.00;;;;;;4987606;28;20030;-73
2022/01/13 08:54:05;;;;;;;27.75;16.45;;;18.00;47.70;;;;;;4975580;28;20073;-72
2022/01/13 08:56:31;;;;;;;26.48;16.10;;;18.60;48.80;;;;;;4989375;28;20054;-73
2022/01/13 08:58:56;;;;;;;23.38;15.05;;;19.20;49.00;;;;;;4992874;28;20058;-73
2022/01/13 09:01:22;;;;;;;22.33;13.13;;;19.60;49.30;;;;;;4991363;28;20448;-73
2022/01/13 09:03:48;;;;;;;21.30;11.43;;;20.00;49.10;;;;;;4986104;28;20105;-74
2022/01/13 09:06:14;;;;;;;19.88;10.82;;;20.30;49.10;;;;;;4991209;28;20030;-73
2022/01/13 09:08:40;;;;;;;18.20;10.02;;;20.60;49.00;;;;;;4992937;28;20026;-73
2022/01/13 09:11:06;;;;;;;18.73;9.05;;;20.80;49.00;;;;;;4991345;28;20034;-72
2022/01/13 09:13:36;;;;;;;13.88;8.15;;;20.90;49.00;;;;;;4992985;28;20022;-73
2022/01/13 09:16:04;;;;;;;14.80;8.25;;;21.00;49.00;;;;;;4991230;28;20042;-72
2022/01/13 09:18:46;;;;;;;14.40;7.78;;;21.10;49.20;;;;;;4974621;28;20125;-73
2022/01/13 09:21:13;;;;;;;13.77;7.38;;;21.20;49.40;;;;;;4989553;28;20476;-73
2022/01/13 09:23:39;;;;;;;13.57;6.93;;;21.30;49.40;;;;;;4992388;28;20054;-72
2022/01/13 09:26:05;;;;;;;29.10;8.48;;;21.30;49.50;;;;;;4975320;28;20041;-74
2022/01/13 09:28:31;;;;;;;13.85;6.63;;;21.40;48.70;;;;;;4970938;28;20089;-74
2022/01/13 09:30:57;;;;;;;15.02;6.25;;;21.40;49.50;;;;;;4971407;28;20027;-75
2022/01/13 09:33:22;;;;;;;17.77;5.88;;;21.40;49.90;;;;;;4971513;28;20042;-74
2022/01/13 09:35:48;;;;;;;14.27;5.78;;;21.40;49.90;;;;;;4978833;28;20113;-75
2022/01/13 09:38:14;;;;;;;13.88;5.70;;;21.50;50.10;;;;;;4974302;28;20464;-75
2022/01/13 09:40:42;;;;;;;16.00;5.15;;;21.50;50.10;;;;;;4972295;28;20030;-76
2022/01/13 09:43:09;;;;;;;16.88;5.50;;;21.50;50.30;;;;;;4955332;28;20080;-76
2022/01/13 09:45:35;;;;;;;21.92;6.05;;;21.60;51.40;;;;;;4972575;28;20042;-75
2022/01/13 09:48:01;;;;;;;19.05;5.97;;;21.60;51.40;;;;;;4972591;28;20525;-75
2022/01/13 09:50:27;;;;;;;19.15;5.18;;;21.60;51.50;;;;;;4970912;28;20026;-76
2022/01/13 09:52:53;;;;;;;12.02;5.60;;;21.60;51.00;;;;;;4972463;28;20475;-75
2022/01/13 09:55:19;;;;;;;15.45;5.88;;;21.60;51.40;;;;;;4988909;28;20027;-75
2022/01/13 09:57:50;;;;;;;21.30;6.10;;;21.60;51.20;;;;;;4990168;28;20417;-75
2022/01/13 10:00:24;;;;;;;17.15;6.78;;;21.60;51.80;;;;;;4958077;28;20073;-75
2022/01/13 10:02:50;;;;;;;14.60;5.82;;;21.50;51.00;;;;;;4974230;28;20033;-75
2022/01/13 10:05:21;;;;;;;12.50;5.43;;;21.50;51.50;;;;;;4987627;28;20030;-76
2022/01/13 10:07:50;;;;;;;14.40;5.55;;;21.50;51.60;;;;;;4974414;28;20514;-76
2022/01/13 10:10:20;;;;;;;15.15;5.65;;;21.60;51.60;;;;;;4975834;28;20029;-76
2022/01/13 10:12:58;;;;;;;15.45;5.63;;;21.50;51.70;;;;;;4971771;28;20026;-76
2022/01/13 10:18:08;;;;;;;13.30;5.10;;;21.50;51.70;;;;;;4972037;28;20371;-77
2022/01/13 10:20:34;;;;;;;16.55;4.80;;;21.50;51.80;;;;;;4977738;28;20042;-77
2022/01/13 10:23:10;;;;;;;13.52;5.50;;;21.50;51.90;;;;;;4990383;28;20540;-76
2022/01/13 10:25:40;;;;;;;12.27;5.13;;;21.50;51.80;;;;;;4991558;28;20030;-76
2022/01/13 10:28:21;;;;;;;9.65;4.60;;;21.50;52.00;;;;;;4989504;28;20039;-76
2022/01/13 10:30:51;;;;;;;13.07;5.70;;;21.50;52.00;;;;;;4988742;28;20036;-76
2022/01/13 10:33:19;;;;;;;;;;;21.50;52.10;;;;;;4991890;28;20058;-76
2022/01/13 10:35:46;;;;;;;12.95;4.95;;;21.50;52.10;;;;;;4989516;28;19927;-77
2022/01/13 10:38:16;;;;;;;11.85;4.85;;;21.50;53.10;;;;;;4974103;28;20015;-78
2022/01/13 10:40:47;;;;;;;11.32;4.90;;;21.50;53.00;;;;;;4971604;28;20023;-76
2022/01/13 10:43:16;;;;;;;17.33;5.38;;;21.50;52.70;;;;;;4971285;28;20427;-76
2022/01/13 10:45:48;;;;;;;22.40;15.27;;;21.50;52.70;;;;;;4963889;28;20027;-78
2022/01/13 10:48:25;;;;;;;28.80;18.05;;;21.20;47.20;;;;;;4977515;28;20274;-78
2022/01/13 10:50:57;;;;;;;25.65;16.52;;;20.90;45.20;;;;;;4971173;28;20113;-78
2022/01/13 10:53:35;;;;;;;24.20;16.30;;;20.70;44.10;;;;;;4973703;28;20097;-77
2022/01/13 10:56:10;;;;;;;24.30;15.85;;;20.50;43.40;;;;;;4950184;28;20047;-77
2022/01/13 10:58:38;;;;;;;22.02;13.00;;;20.50;44.20;;;;;;4970687;28;20106;-76
2022/01/13 11:01:05;;;;;;;18.77;11.65;;;20.60;46.20;;;;;;4974701;28;20550;-76
2022/01/13 11:03:34;;;;;;;20.38;11.90;;;20.70;46.60;;;;;;4971035;28;20037;-75
2022/01/13 11:06:05;;;;;;;18.17;10.73;;;20.80;47.80;;;;;;4971151;28;20093;-76
2022/01/13 11:08:40;;;;;;;16.38;10.30;;;20.90;47.70;;;;;;4969464;28;20117;-76
2022/01/13 11:11:14;;;;;;;17.02;9.60;;;21.00;47.80;;;;;;4970964;28;20314;-78
2022/01/13 11:13:53;;;;;;;15.27;8.68;;;21.10;48.00;;;;;;4971220;28;20471;-77
2022/01/13 11:16:20;;;;;;;14.70;7.82;;;21.20;47.60;;;;;;4988715;28;20034;-77
2022/01/13 11:18:46;;;;;;;17.73;7.78;;;21.20;47.50;;;;;;4956575;28;20038;-78
2022/01/13 11:21:12;;;;;;;18.48;7.65;;;21.20;47.70;;;;;;4990257;28;20027;-74
2022/01/13 11:23:38;;;;;;;12.50;7.30;;;21.20;47.50;;;;;;4978168;28;20181;-76
2022/01/13 11:26:06;;;;;;;11.68;6.90;;;21.30;47.70;;;;;;4974108;28;20113;-76
2022/01/13 11:28:35;;;;;;;13.32;6.63;;;21.30;47.90;;;;;;4977570;28;20156;-76
2022/01/13 11:31:01;;;;;;;11.93;6.10;;;21.30;48.00;;;;;;4974850;28;20465;-77
2022/01/13 11:33:27;;;;;;;11.10;6.32;;;21.30;48.10;;;;;;4979111;28;20058;-76
2022/01/13 11:35:56;;;;;;;11.82;5.70;;;21.40;48.30;;;;;;4979636;28;20033;-76
2022/01/13 11:38:25;;;;;;;12.80;5.40;;;21.30;48.40;;;;;;4982699;28;20038;-76
2022/01/13 11:40:54;;;;;;;11.55;5.60;;;21.40;48.60;;;;;;4980449;28;20486;-76
2022/01/13 11:43:38;;;;;;;10.73;5.60;;;21.40;48.80;;;;;;4989748;28;20033;-76
2022/01/13 11:46:19;;;;;;;9.00;5.00;;;21.40;48.80;;;;;;4972285;28;20049;-76
2022/01/13 11:49:02;;;;;;;8.55;4.28;;;21.40;48.80;;;;;;4970137;28;20037;-76
2022/01/13 11:51:55;;;;;;;8.30;4.57;;;21.40;49.10;;;;;;4970597;28;20023;-76
2022/01/13 11:54:36;;;;;;;9.20;4.95;;;21.40;49.20;;;;;;4970117;28;20043;-75
2022/01/13 11:57:18;;;;;;;8.82;4.47;;;21.40;49.30;;;;;;4970051;28;20027;-76
2022/01/13 11:59:55;;;;;;;8.85;4.63;;;21.40;49.40;;;;;;4969910;28;20027;-75
2022/01/13 12:02:28;;;;;;;11.20;4.78;;;21.40;49.60;;;;;;4986190;28;20042;-76
2022/01/13 12:05:17;;;;;;;10.07;4.45;;;21.40;49.50;;;;;;4989420;28;20034;-76
2022/01/13 12:07:49;;;;;;;10.95;4.78;;;21.40;50.20;;;;;;4970012;28;20035;-75
2022/01/13 12:10:20;;;;;;;9.38;4.70;;;21.40;50.00;;;;;;4978665;28;20026;-76
2022/01/13 12:12:46;;;;;;;10.57;4.75;;;21.40;50.20;;;;;;4976430;28;20022;-76
2022/01/13 12:15:21;;;;;;;9.40;4.47;;;21.40;50.00;;;;;;4989495;28;20044;-77
2022/01/13 12:17:50;;;;;;;7.38;4.30;;;21.40;49.80;;;;;;4987689;28;20041;-76
2022/01/13 12:20:38;;;;;;;9.65;4.88;;;21.40;50.10;;;;;;4988855;28;20034;-77
2022/01/13 12:23:17;;;;;;;18.52;4.60;;;21.40;50.30;;;;;;4983661;28;20049;-77
2022/01/13 12:25:43;;;;;;;13.07;4.65;;;21.40;50.50;;;;;;4975905;28;20466;-76
2022/01/13 12:28:18;;;;;;;13.65;5.47;;;21.40;51.00;;;;;;4968313;28;20065;-76
2022/01/13 12:30:44;;;;;;;13.35;4.70;;;21.40;50.60;;;;;;4952319;28;20104;-76
2022/01/13 12:33:10;;;;;;;14.52;4.80;;;21.40;50.20;;;;;;4970714;28;20038;-76
2022/01/13 12:35:47;;;;;;;11.50;4.57;;;21.40;50.30;;;;;;4971856;28;20041;-76
2022/01/13 12:38:20;;;;;;;10.32;4.55;;;21.40;50.30;;;;;;4970683;28;20104;-76
2022/01/13 12:40:56;;;;;;;10.90;4.63;;;21.40;50.40;;;;;;4968009;28;20027;-76
2022/01/13 12:46:37;;;;;;;8.00;4.30;;;21.40;50.40;;;;;;4969653;28;20428;-76
2022/01/13 12:49:02;;;;;;;11.93;4.57;;;21.40;50.60;;;;;;4968520;28;20517;-76
2022/01/13 12:51:30;;;;;;;12.25;5.97;;;21.40;50.60;;;;;;4969484;28;20074;-77
2022/01/13 12:53:55;;;;;;;9.60;4.65;;;21.40;50.50;;;;;;4987049;28;20033;-76
2022/01/13 12:56:24;;;;;;;7.30;3.90;;;21.40;50.50;;;;;;4992697;28;20279;-76
2022/01/13 12:59:11;;;;;;;8.73;4.63;;;21.40;50.50;;;;;;4991171;28;20038;-76
2022/01/13 13:01:37;;;;;;;8.32;4.18;;;21.40;50.60;;;;;;4991139;28;20045;-76
2022/01/13 13:04:10;;;;;;;11.88;4.82;;;21.40;50.60;;;;;;4980975;28;20520;-77
2022/01/13 13:06:43;;;;;;;8.18;3.88;;;21.40;50.60;;;;;;4973249;28;20046;-77
2022/01/13 13:09:15;;;;;;;8.00;4.57;;;21.40;50.40;;;;;;4955260;28;20468;-76
2022/01/13 13:11:49;;;;;;;10.75;4.30;;;21.40;50.80;;;;;;4973021;28;20350;-76
2022/01/13 13:14:29;;;;;;;9.32;4.45;;;21.40;50.80;;;;;;4974260;28;20030;-76
2022/01/13 13:16:55;;;;;;;;;;;21.30;50.60;;;;;;4955745;28;20102;-76
2022/01/13 13:19:21;;;;;;;9.02;4.13;;;21.30;50.80;;;;;;4972142;28;20361;-76
2022/01/13 13:21:52;;;;;;;10.23;3.83;;;21.40;51.60;;;;;;4971224;28;20415;-76